Time;durP1;ratioP1;P1;durP2;ratioP2;P2;SDS_P1;SDS_P2;PMS_P1;PMS_P2;Temp;Humidity;BMP_temperature;BMP_pressure;BME280_temperature;BME280_humidity;BME280_pressure;Samples;Min_cycle;Max_cycle;Signal;HPM_P1;HPM_P2
2023/02/23 00:01:00;;;;;;;18.77;5.28;;;;;;;;;;6126144;23;20761;-82
2023/02/23 00:03:33;;;;;;;20.13;5.57;;;;;;;;;;6151223;23;20852;-83
2023/02/23 00:06:02;;;;;;;17.63;5.22;;;;;;;;;;6126873;23;20389;-83
2023/02/23 00:08:35;;;;;;;19.83;4.93;;;;;;;;;;6151533;23;20455;-83
2023/02/23 00:11:04;;;;;;;14.88;4.85;;;;;;;;;;6127233;23;20712;-83
2023/02/23 00:13:37;;;;;;;15.60;4.93;;;;;;;;;;6163035;23;20832;-83
2023/02/23 00:16:07;;;;;;;14.68;4.65;;;;;;;;;;6126565;23;20382;-84
2023/02/23 00:18:43;;;;;;;19.33;4.95;;;;;;;;;;6151079;23;20382;-83
2023/02/23 00:21:17;;;;;;;16.92;4.53;;;;;;;;;;6126946;23;20383;-83
2023/02/23 00:23:51;;;;;;;17.93;4.77;;;;;;;;;;6151276;23;20383;-83
2023/02/23 00:26:20;;;;;;;17.27;4.70;;;;;;;;;;6153052;23;20379;-83
2023/02/23 00:28:49;;;;;;;18.83;4.60;;;;;;;;;;6126694;23;20386;-83
2023/02/23 00:31:22;;;;;;;14.38;4.57;;;;;;;;;;6126349;23;20391;-84
2023/02/23 00:33:50;;;;;;;17.10;4.80;;;;;;;;;;6126266;23;20992;-83
2023/02/23 00:36:24;;;;;;;19.27;4.63;;;;;;;;;;6126881;23;20382;-83
2023/02/23 00:38:59;;;;;;;19.23;4.72;;;;;;;;;;6162808;23;20385;-83
2023/02/23 00:41:28;;;;;;;16.63;4.63;;;;;;;;;;6153168;23;20367;-83
2023/02/23 00:43:57;;;;;;;15.83;4.80;;;;;;;;;;6125709;23;20875;-84
2023/02/23 00:46:31;;;;;;;14.98;4.40;;;;;;;;;;6150303;23;20891;-83
2023/02/23 00:48:59;;;;;;;20.35;4.78;;;;;;;;;;6125980;23;20394;-84
2023/02/23 00:51:31;;;;;;;18.50;4.55;;;;;;;;;;6150880;23;20375;-83
2023/02/23 00:54:06;;;;;;;14.00;4.53;;;;;;;;;;6151275;23;20386;-83
2023/02/23 00:56:34;;;;;;;16.73;4.28;;;;;;;;;;6150703;23;20386;-83
2023/02/23 00:59:02;;;;;;;18.20;4.53;;;;;;;;;;6126255;23;20394;-82
2023/02/23 01:01:36;;;;;;;19.60;4.65;;;;;;;;;;6163082;23;20378;-83
2023/02/23 01:04:10;;;;;;;17.95;4.80;;;;;;;;;;6126454;23;20386;-84
2023/02/23 01:06:39;;;;;;;18.92;4.93;;;;;;;;;;6126696;23;20383;-83
2023/02/23 01:09:08;;;;;;;15.77;4.50;;;;;;;;;;6126220;23;20387;-83
2023/02/23 01:11:40;;;;;;;17.40;4.50;;;;;;;;;;6127091;23;20447;-84
2023/02/23 01:14:09;;;;;;;15.98;4.32;;;;;;;;;;6125804;23;20379;-83
2023/02/23 01:16:43;;;;;;;18.03;4.93;;;;;;;;;;6162744;23;20705;-84
2023/02/23 01:19:16;;;;;;;14.82;4.47;;;;;;;;;;6126362;23;20382;-83
2023/02/23 01:21:44;;;;;;;20.30;4.65;;;;;;;;;;6126381;23;20386;-84
2023/02/23 01:24:17;;;;;;;17.33;4.80;;;;;;;;;;6163297;23;20670;-83
2023/02/23 01:26:50;;;;;;;17.58;4.80;;;;;;;;;;6127895;23;20395;-83
2023/02/23 01:29:23;;;;;;;18.13;4.60;;;;;;;;;;6153056;23;20382;-83
2023/02/23 01:31:57;;;;;;;14.48;4.00;;;;;;;;;;6165029;23;20375;-82
2023/02/23 01:34:30;;;;;;;18.42;4.47;;;;;;;;;;6152740;23;20444;-83
2023/02/23 01:36:57;;;;;;;14.77;4.68;;;;;;;;;;6128241;23;20371;-83
2023/02/23 01:39:32;;;;;;;19.95;4.50;;;;;;;;;;6128025;23;20398;-83
2023/02/23 01:42:00;;;;;;;15.80;4.50;;;;;;;;;;6127426;23;20382;-83
2023/02/23 01:44:46;;;;;;;16.23;3.95;;;;;;;;;;6128608;23;20394;-83
2023/02/23 01:47:21;;;;;;;17.13;4.53;;;;;;;;;;6127601;23;20390;-83
2023/02/23 01:49:53;;;;;;;18.95;4.20;;;;;;;;;;6152927;23;20410;-83
2023/02/23 01:52:26;;;;;;;17.05;4.60;;;;;;;;;;6127895;23;20394;-83
2023/02/23 01:54:55;;;;;;;19.33;4.47;;;;;;;;;;6128444;23;20386;-83
2023/02/23 01:57:28;;;;;;;19.88;4.45;;;;;;;;;;6128480;23;20375;-83
2023/02/23 01:59:56;;;;;;;14.75;4.50;;;;;;;;;;6127908;23;20715;-83
2023/02/23 02:02:32;;;;;;;14.95;4.68;;;;;;;;;;6128110;23;20379;-83
2023/02/23 02:05:00;;;;;;;14.93;4.03;;;;;;;;;;6128435;23;20394;-83
2023/02/23 02:07:29;;;;;;;17.10;4.43;;;;;;;;;;6128045;23;20394;-83
2023/02/23 02:12:51;;;;;;;18.65;4.32;;;;;;;;;;6128047;23;20375;-83
2023/02/23 02:15:21;;;;;;;20.70;4.65;;;;;;;;;;6127202;23;20406;-83
2023/02/23 02:18:02;;;;;;;21.63;4.70;;;;;;;;;;6126666;23;20383;-83
2023/02/23 02:20:36;;;;;;;19.73;4.47;;;;;;;;;;6127767;23;20385;-83
2023/02/23 02:23:26;;;;;;;18.00;4.68;;;;;;;;;;6164358;23;20382;-83
2023/02/23 02:26:04;;;;;;;17.55;4.32;;;;;;;;;;6127223;23;20417;-83
2023/02/23 02:28:42;;;;;;;15.97;4.40;;;;;;;;;;6164184;23;20386;-84
2023/02/23 02:31:24;;;;;;;18.85;4.55;;;;;;;;;;6126899;23;20389;-83
2023/02/23 02:34:10;;;;;;;14.93;4.53;;;;;;;;;;6150407;23;20390;-83
2023/02/23 02:36:57;;;;;;;18.23;4.35;;;;;;;;;;6126783;23;20382;-83
2023/02/23 02:39:35;;;;;;;18.38;4.28;;;;;;;;;;6127555;23;20837;-83
2023/02/23 02:42:08;;;;;;;16.33;4.10;;;;;;;;;;6127144;23;20836;-83
2023/02/23 02:44:44;;;;;;;19.20;4.68;;;;;;;;;;6127482;23;20390;-83
2023/02/23 02:47:19;;;;;;;19.80;4.38;;;;;;;;;;6126363;23;20868;-83
2023/02/23 02:49:50;;;;;;;18.17;4.25;;;;;;;;;;6127753;23;20379;-83
2023/02/23 02:52:24;;;;;;;20.23;4.68;;;;;;;;;;6128011;23;20459;-83
2023/02/23 02:55:01;;;;;;;18.88;4.55;;;;;;;;;;6127506;23;20849;-83
2023/02/23 02:57:35;;;;;;;15.50;4.25;;;;;;;;;;6163784;23;20374;-84
2023/02/23 04:19:28;;;;;;;19.30;4.72;;;;;;;;;;6126739;23;20386;-84
2023/02/23 04:22:01;;;;;;;14.13;4.38;;;;;;;;;;6127073;23;20394;-83
2023/02/23 04:24:34;;;;;;;15.80;4.30;;;;;;;;;;6126780;23;20386;-83
2023/02/23 04:27:06;;;;;;;18.40;4.65;;;;;;;;;;6126261;23;20390;-83
2023/02/23 04:29:39;;;;;;;22.10;4.90;;;;;;;;;;6126815;23;20379;-83
2023/02/23 04:32:14;;;;;;;20.23;4.97;;;;;;;;;;6126694;23;20371;-83
2023/02/23 04:34:48;;;;;;;16.95;5.35;;;;;;;;;;6162810;23;20379;-83
2023/02/23 04:37:16;;;;;;;20.33;5.10;;;;;;;;;;6126288;23;20387;-83
2023/02/23 04:39:49;;;;;;;23.50;7.57;;;;;;;;;;6126042;23;20398;-83
2023/02/23 04:42:22;;;;;;;18.83;6.70;;;;;;;;;;6163147;23;20898;-83
2023/02/23 04:44:50;;;;;;;20.75;5.53;;;;;;;;;;6153300;23;20378;-83
2023/02/23 04:47:23;;;;;;;20.42;5.55;;;;;;;;;;6126136;23;20410;-84
2023/02/23 04:49:52;;;;;;;17.63;6.03;;;;;;;;;;6126994;23;20383;-83
2023/02/23 04:52:20;;;;;;;23.00;6.20;;;;;;;;;;6153336;23;20367;-83
2023/02/23 04:54:53;;;;;;;19.05;5.90;;;;;;;;;;6125905;23;20390;-83
2023/02/23 04:57:21;;;;;;;17.70;5.25;;;;;;;;;;6126721;23;20386;-83
2023/02/23 04:59:53;;;;;;;21.05;7.18;;;;;;;;;;6152470;23;20418;-83
2023/02/23 05:02:21;;;;;;;24.73;6.75;;;;;;;;;;6155569;23;20820;-83
2023/02/23 05:04:55;;;;;;;26.10;7.22;;;;;;;;;;6164855;23;20390;-83
2023/02/23 05:07:28;;;;;;;20.45;6.65;;;;;;;;;;6128033;23;20390;-83
2023/02/23 05:09:56;;;;;;;21.65;7.00;;;;;;;;;;6154469;23;20486;-83
2023/02/23 05:12:23;;;;;;;19.45;6.30;;;;;;;;;;6154902;23;20697;-83
2023/02/23 05:14:51;;;;;;;25.52;7.10;;;;;;;;;;6155132;23;20367;-83
2023/02/23 05:17:24;;;;;;;25.17;6.97;;;;;;;;;;6152735;23;20686;-84
2023/02/23 05:19:58;;;;;;;25.38;6.78;;;;;;;;;;6128263;23;20705;-83
2023/02/23 05:22:31;;;;;;;25.02;7.20;;;;;;;;;;6128392;23;20860;-83
2023/02/23 05:25:04;;;;;;;27.33;7.28;;;;;;;;;;6127899;23;20387;-83
2023/02/23 05:27:37;;;;;;;25.35;7.30;;;;;;;;;;6164574;23;20397;-83
2023/02/23 05:30:06;;;;;;;32.33;7.43;;;;;;;;;;6128111;23;20394;-83
2023/02/23 05:32:39;;;;;;;31.88;7.40;;;;;;;;;;6164534;23;20828;-83
2023/02/23 05:35:09;;;;;;;24.90;7.93;;;;;;;;;;6128431;23;20386;-83
2023/02/23 05:37:41;;;;;;;30.63;8.32;;;;;;;;;;6164641;23;20382;-84
2023/02/23 05:40:15;;;;;;;27.92;8.13;;;;;;;;;;6128466;23;20401;-83
2023/02/23 05:42:47;;;;;;;35.73;9.13;;;;;;;;;;6164649;23;20400;-83
2023/02/23 05:45:15;;;;;;;35.50;8.87;;;;;;;;;;6127823;23;20437;-83
2023/02/23 05:47:43;;;;;;;32.73;9.07;;;;;;;;;;6127439;23;21185;-83
2023/02/23 05:50:17;;;;;;;31.97;8.80;;;;;;;;;;6164010;23;20408;-83
2023/02/23 05:52:50;;;;;;;40.92;10.50;;;;;;;;;;6127823;23;20378;-83
2023/02/23 05:55:23;;;;;;;38.60;9.68;;;;;;;;;;6152371;23;20387;-83
2023/02/23 05:57:51;;;;;;;42.20;10.80;;;;;;;;;;6152178;23;20382;-83
2023/02/23 06:00:19;;;;;;;39.20;9.95;;;;;;;;;;6127930;23;20385;-83
2023/02/23 06:02:52;;;;;;;34.13;9.32;;;;;;;;;;6124725;23;20390;-84
2023/02/23 06:05:21;;;;;;;37.45;9.30;;;;;;;;;;6153581;23;20373;-83
2023/02/23 06:07:49;;;;;;;36.83;10.03;;;;;;;;;;6127245;23;20383;-84
2023/02/23 06:10:22;;;;;;;35.37;9.90;;;;;;;;;;6151107;23;20930;-83
2023/02/23 06:12:55;;;;;;;37.37;10.10;;;;;;;;;;6163310;23;20394;-83
2023/02/23 06:15:27;;;;;;;42.63;10.40;;;;;;;;;;6127711;23;20433;-83
2023/02/23 06:18:00;;;;;;;42.75;10.90;;;;;;;;;;6126676;23;20375;-83
2023/02/23 06:20:35;;;;;;;41.22;10.35;;;;;;;;;;6151366;23;20394;-83
2023/02/23 06:23:07;;;;;;;40.78;10.27;;;;;;;;;;6151693;23;20390;-83
2023/02/23 06:25:35;;;;;;;41.38;10.90;;;;;;;;;;6153118;23;20378;-84
2023/02/23 06:28:03;;;;;;;40.20;10.50;;;;;;;;;;6151552;23;20756;-83
2023/02/23 06:30:36;;;;;;;50.08;11.88;;;;;;;;;;6163830;23;20960;-83
2023/02/23 06:33:09;;;;;;;43.67;10.93;;;;;;;;;;6150445;23;20379;-83
2023/02/23 06:35:44;;;;;;;42.33;11.27;;;;;;;;;;6126863;23;20844;-83
2023/02/23 06:38:12;;;;;;;40.95;11.07;;;;;;;;;;6150879;23;20785;-83
2023/02/23 06:40:40;;;;;;;41.77;11.33;;;;;;;;;;6151395;23;20705;-83
2023/02/23 06:43:08;;;;;;;45.70;11.55;;;;;;;;;;6151455;23;20391;-83
2023/02/23 06:45:35;;;;;;;42.55;12.13;;;;;;;;;;6150529;23;20848;-83
2023/02/23 06:48:08;;;;;;;50.55;11.43;;;;;;;;;;6126768;23;20889;-83
2023/02/23 06:50:36;;;;;;;42.08;11.63;;;;;;;;;;6153025;23;20383;-83
2023/02/23 06:53:11;;;;;;;51.08;12.60;;;;;;;;;;6150362;23;20390;-83
2023/02/23 06:55:43;;;;;;;52.72;11.57;;;;;;;;;;6127015;23;20379;-84
2023/02/23 06:58:16;;;;;;;47.90;12.50;;;;;;;;;;6150390;23;20383;-83
2023/02/23 07:00:44;;;;;;;52.85;12.82;;;;;;;;;;6150239;23;20387;-83
2023/02/23 07:03:12;;;;;;;45.65;11.43;;;;;;;;;;6127035;23;20383;-84
2023/02/23 07:05:39;;;;;;;49.08;11.63;;;;;;;;;;6153358;23;20390;-83
2023/02/23 07:08:07;;;;;;;44.35;12.20;;;;;;;;;;6126697;23;20383;-83
2023/02/23 07:10:41;;;;;;;58.15;12.32;;;;;;;;;;6151573;23;20383;-83
2023/02/23 07:13:11;;;;;;;57.77;12.67;;;;;;;;;;6150871;23;20390;-83
2023/02/23 07:15:40;;;;;;;71.50;12.67;;;;;;;;;;6151923;23;20832;-84
2023/02/23 07:18:13;;;;;;;63.35;11.70;;;;;;;;;;6150549;23;20390;-83
2023/02/23 07:20:45;;;;;;;49.42;11.30;;;;;;;;;;6126710;23;20371;-83
2023/02/23 07:23:13;;;;;;;85.10;13.00;;;;;;;;;;6150042;23;20387;-83
2023/02/23 07:25:42;;;;;;;54.90;12.38;;;;;;;;;;6151220;23;20379;-83
2023/02/23 07:28:15;;;;;;;53.03;12.33;;;;;;;;;;6153808;23;20395;-83
2023/02/23 07:30:48;;;;;;;67.40;12.80;;;;;;;;;;6150729;23;20382;-83
2023/02/23 07:33:21;;;;;;;63.03;12.55;;;;;;;;;;6125636;23;20387;-83
2023/02/23 07:35:49;;;;;;;57.15;13.30;;;;;;;;;;6126955;23;20383;-83
2023/02/23 07:38:22;;;;;;;69.00;12.25;;;;;;;;;;6151744;23;20682;-84
2023/02/23 07:40:51;;;;;;;59.17;12.45;;;;;;;;;;6152318;23;20359;-83
2023/02/23 07:43:19;;;;;;;84.65;13.23;;;;;;;;;;6153007;23;20374;-83
2023/02/23 07:45:47;;;;;;;96.60;13.20;;;;;;;;;;6150123;23;20390;-84
2023/02/23 07:48:15;;;;;;;65.68;13.88;;;;;;;;;;6136507;23;20871;-87
2023/02/23 07:50:43;;;;;;;96.15;13.68;;;;;;;;;;6148198;23;20387;-84
2023/02/23 07:53:16;;;;;;;65.68;13.90;;;;;;;;;;6162075;23;20383;-84
2023/02/23 07:55:44;;;;;;;68.65;13.60;;;;;;;;;;6125723;23;20386;-84
2023/02/23 07:58:18;;;;;;;70.15;14.20;;;;;;;;;;6161183;23;20390;-84
2023/02/23 08:00:46;;;;;;;68.90;14.07;;;;;;;;;;6149788;23;20374;-83
2023/02/23 08:03:14;;;;;;;65.82;14.25;;;;;;;;;;6122474;23;20386;-83
2023/02/23 08:05:47;;;;;;;76.63;14.50;;;;;;;;;;6148411;23;20392;-85
2023/02/23 08:08:19;;;;;;;58.87;14.90;;;;;;;;;;6161029;23;20378;-84
2023/02/23 08:10:47;;;;;;;57.23;14.57;;;;;;;;;;6148971;23;20383;-84
2023/02/23 08:13:16;;;;;;;98.97;14.88;;;;;;;;;;6124198;23;20393;-83
2023/02/23 08:15:51;;;;;;;75.97;15.75;;;;;;;;;;6125636;23;20706;-83
2023/02/23 08:18:18;;;;;;;66.18;16.00;;;;;;;;;;6151773;23;20370;-83
2023/02/23 08:20:57;;;;;;;66.25;16.75;;;;;;;;;;6150463;23;20390;-83
2023/02/23 08:23:30;;;;;;;62.58;16.23;;;;;;;;;;6161119;23;20390;-83
2023/02/23 08:25:58;;;;;;;69.97;17.35;;;;;;;;;;6149333;23;20379;-82
2023/02/23 08:28:26;;;;;;;74.30;17.38;;;;;;;;;;6150891;23;20378;-82
2023/02/23 08:31:00;;;;;;;65.50;17.83;;;;;;;;;;6149359;23;20425;-83
2023/02/23 08:33:34;;;;;;;74.78;19.10;;;;;;;;;;6110198;23;20393;-83
2023/02/23 08:36:07;;;;;;;71.47;18.67;;;;;;;;;;6144032;23;20387;-86
2023/02/23 08:39:06;;;;;;;80.05;20.20;;;;;;;;;;6148741;23;20390;-83
2023/02/23 08:41:39;;;;;;;68.72;20.35;;;;;;;;;;6132790;23;20760;-84
2023/02/23 08:44:07;;;;;;;72.90;19.77;;;;;;;;;;6114046;23;20985;-84
2023/02/23 08:46:43;;;;;;;63.17;19.75;;;;;;;;;;6137749;23;20390;-83
2023/02/23 08:49:11;;;;;;;67.25;18.92;;;;;;;;;;6134863;23;20698;-85
2023/02/23 08:51:40;;;;;;;68.18;20.30;;;;;;;;;;6142771;23;20379;-81
2023/02/23 08:54:13;;;;;;;76.20;19.63;;;;;;;;;;6111599;23;20948;-83
2023/02/23 08:56:41;;;;;;;58.50;20.17;;;;;;;;;;6114592;23;20387;-82
2023/02/23 08:59:15;;;;;;;64.03;19.73;;;;;;;;;;6110200;23;20790;-82
2023/02/23 09:01:49;;;;;;;68.40;19.55;;;;;;;;;;6116556;23;20704;-85
2023/02/23 09:04:17;;;;;;;72.10;21.83;;;;;;;;;;6133996;23;20386;-83
2023/02/23 09:06:45;;;;;;;63.55;20.30;;;;;;;;;;6134016;23;20398;-84
2023/02/23 09:09:18;;;;;;;73.75;21.23;;;;;;;;;;6132484;23;21462;-84
2023/02/23 09:11:46;;;;;;;78.03;22.17;;;;;;;;;;6109478;23;20395;-85
2023/02/23 09:14:19;;;;;;;68.13;22.13;;;;;;;;;;6147119;23;20458;-83
2023/02/23 09:16:53;;;;;;;70.28;22.38;;;;;;;;;;6142841;23;21135;-83
2023/02/23 09:19:27;;;;;;;83.70;24.30;;;;;;;;;;6129881;23;20401;-83
2023/02/23 09:21:54;;;;;;;83.03;24.40;;;;;;;;;;6106152;23;20390;-84
2023/02/23 09:24:22;;;;;;;83.55;24.83;;;;;;;;;;6107882;23;20383;-82
2023/02/23 09:26:52;;;;;;;85.28;24.80;;;;;;;;;;6133706;23;20935;-84
2023/02/23 09:29:25;;;;;;;88.95;25.42;;;;;;;;;;6129176;23;21184;-81
2023/02/23 09:31:59;;;;;;;88.30;25.80;;;;;;;;;;6146617;23;20394;-81
2023/02/23 09:34:29;;;;;;;89.03;25.10;;;;;;;;;;6133572;23;20371;-83
2023/02/23 09:37:02;;;;;;;86.10;24.90;;;;;;;;;;6142269;23;20389;-84
2023/02/23 09:39:30;;;;;;;77.13;24.10;;;;;;;;;;6133467;23;20713;-83
2023/02/23 09:42:16;;;;;;;83.68;25.13;;;;;;;;;;6138169;23;20374;-84
2023/02/23 09:44:56;;;;;;;79.05;25.45;;;;;;;;;;6131520;23;20398;-83
2023/02/23 09:47:35;;;;;;;81.43;24.38;;;;;;;;;;6133908;23;20390;-83
2023/02/23 09:50:06;;;;;;;76.47;24.13;;;;;;;;;;6109744;23;20709;-84
2023/02/23 09:52:40;;;;;;;77.45;23.92;;;;;;;;;;6141648;23;20383;-83
2023/02/23 09:55:10;;;;;;;75.68;23.30;;;;;;;;;;6112479;23;21037;-82
2023/02/23 09:57:39;;;;;;;67.15;23.00;;;;;;;;;;6135467;23;20393;-86
2023/02/23 10:00:15;;;;;;;63.72;21.98;;;;;;;;;;6133697;23;20408;-83
2023/02/23 10:03:01;;;;;;;59.22;20.17;;;;;;;;;;6135480;23;20386;-82
2023/02/23 10:05:30;;;;;;;49.60;18.33;;;;;;;;;;6108515;23;20851;-84
2023/02/23 10:08:06;;;;;;;49.75;18.15;;;;;;;;;;6142418;23;20379;-83
2023/02/23 10:10:42;;;;;;;44.88;17.75;;;;;;;;;;6146540;23;20383;-83
2023/02/23 10:13:19;;;;;;;38.80;15.88;;;;;;;;;;6136980;23;20970;-83
2023/02/23 10:15:49;;;;;;;39.58;15.95;;;;;;;;;;6142386;23;20836;-82
2023/02/23 10:18:29;;;;;;;35.00;14.43;;;;;;;;;;6138025;23;20394;-82
2023/02/23 10:21:04;;;;;;;37.85;14.70;;;;;;;;;;6112066;23;20421;-84
2023/02/23 10:23:39;;;;;;;35.03;14.63;;;;;;;;;;6145337;23;20375;-83
2023/02/23 10:26:16;;;;;;;32.03;14.02;;;;;;;;;;6109513;23;20406;-82
2023/02/23 10:28:49;;;;;;;30.13;13.30;;;;;;;;;;6111448;23;20383;-83
2023/02/23 10:31:26;;;;;;;29.77;13.43;;;;;;;;;;6136904;23;20387;-84
2023/02/23 10:33:58;;;;;;;29.08;13.48;;;;;;;;;;6110416;23;20386;-84
2023/02/23 10:36:31;;;;;;;26.88;13.07;;;;;;;;;;6135831;23;20363;-83
2023/02/23 10:38:59;;;;;;;31.08;14.15;;;;;;;;;;6147083;23;20694;-82
2023/02/23 10:41:32;;;;;;;29.50;14.43;;;;;;;;;;6138023;23;20386;-82
2023/02/23 10:44:05;;;;;;;33.42;15.20;;;;;;;;;;6138368;23;20426;-82
2023/02/23 10:46:36;;;;;;;34.10;16.08;;;;;;;;;;6136606;23;20370;-83
2023/02/23 10:49:06;;;;;;;34.38;15.95;;;;;;;;;;6135513;23;20397;-82
2023/02/23 10:51:39;;;;;;;38.60;16.70;;;;;;;;;;6108672;23;20433;-84
2023/02/23 10:54:26;;;;;;;37.85;16.77;;;;;;;;;;6136689;23;20387;-83
2023/02/23 10:56:54;;;;;;;38.30;17.37;;;;;;;;;;6109051;23;20387;-85
2023/02/23 10:59:21;;;;;;;41.43;18.20;;;;;;;;;;6112481;23;20608;-82
2023/02/23 11:01:49;;;;;;;39.60;18.20;;;;;;;;;;6134935;23;20374;-84
2023/02/23 11:04:25;;;;;;;44.38;18.67;;;;;;;;;;6142924;23;20381;-84
2023/02/23 11:07:06;;;;;;;42.60;18.10;;;;;;;;;;6133365;23;20724;-84
2023/02/23 11:09:34;;;;;;;41.53;18.23;;;;;;;;;;6134214;23;20391;-83
2023/02/23 11:12:20;;;;;;;47.47;19.88;;;;;;;;;;6110017;23;20402;-84
2023/02/23 11:14:48;;;;;;;44.97;18.77;;;;;;;;;;6134320;23;20570;-83
2023/02/23 11:17:27;;;;;;;46.17;19.55;;;;;;;;;;6114587;23;20386;-82
2023/02/23 11:20:04;;;;;;;47.40;19.90;;;;;;;;;;6139662;23;20391;-86
2023/02/23 11:22:34;;;;;;;60.15;21.75;;;;;;;;;;6137118;23;20564;-84
2023/02/23 11:25:14;;;;;;;68.97;23.30;;;;;;;;;;6134568;23;20768;-84
2023/02/23 11:27:50;;;;;;;90.07;25.50;;;;;;;;;;6135054;23;20848;-83
2023/02/23 11:30:24;;;;;;;84.70;25.83;;;;;;;;;;6114159;23;20387;-84
2023/02/23 11:33:08;;;;;;;92.72;26.80;;;;;;;;;;6100674;23;20383;-84
2023/02/23 11:35:37;;;;;;;84.25;26.98;;;;;;;;;;6137497;23;20391;-82
2023/02/23 11:38:15;;;;;;;88.45;27.40;;;;;;;;;;6136638;23;20378;-83
2023/02/23 11:40:57;;;;;;;90.75;26.75;;;;;;;;;;6133176;23;20378;-83
2023/02/23 11:43:30;;;;;;;84.70;26.77;;;;;;;;;;6131468;23;20393;-85
2023/02/23 11:46:03;;;;;;;86.70;26.60;;;;;;;;;;6143372;23;20456;-84
2023/02/23 11:48:33;;;;;;;92.65;27.17;;;;;;;;;;6114081;23;20379;-85
2023/02/23 11:51:07;;;;;;;87.65;26.88;;;;;;;;;;6111658;23;20868;-86
2023/02/23 11:53:36;;;;;;;97.25;28.35;;;;;;;;;;6140229;23;20394;-85
2023/02/23 11:56:09;;;;;;;85.70;27.15;;;;;;;;;;6141530;23;20422;-83
2023/02/23 11:58:39;;;;;;;91.35;27.38;;;;;;;;;;6106984;23;20387;-84
2023/02/23 12:01:12;;;;;;;88.75;27.05;;;;;;;;;;6135182;23;20386;-86
2023/02/23 12:03:46;;;;;;;93.82;28.25;;;;;;;;;;6147804;23;20708;-83
2023/02/23 12:06:28;;;;;;;87.60;26.55;;;;;;;;;;6146310;23;20383;-86
2023/02/23 12:09:06;;;;;;;86.43;26.77;;;;;;;;;;6134367;23;20986;-83
2023/02/23 12:11:40;;;;;;;81.60;25.95;;;;;;;;;;6112799;23;20612;-83
2023/02/23 12:14:18;;;;;;;89.65;26.90;;;;;;;;;;6146389;23;20386;-85
2023/02/23 12:16:48;;;;;;;85.20;27.33;;;;;;;;;;6135730;23;21169;-83
2023/02/23 12:19:22;;;;;;;89.65;27.55;;;;;;;;;;6134301;23;20386;-84
2023/02/23 12:22:03;;;;;;;95.03;27.85;;;;;;;;;;6107154;23;20386;-83
2023/02/23 12:24:37;;;;;;;93.53;27.70;;;;;;;;;;6112783;23;20696;-82
2023/02/23 12:27:12;;;;;;;94.85;27.77;;;;;;;;;;6109885;23;20390;-85
2023/02/23 12:29:43;;;;;;;91.15;28.13;;;;;;;;;;6136485;23;20413;-83
2023/02/23 12:32:18;;;;;;;96.80;28.60;;;;;;;;;;6137507;23;20390;-84
2023/02/23 12:34:47;;;;;;;91.20;28.10;;;;;;;;;;6105842;23;21321;-82
2023/02/23 12:37:29;;;;;;;91.10;26.60;;;;;;;;;;6094716;23;20376;-85
2023/02/23 12:39:58;;;;;;;88.88;27.38;;;;;;;;;;6081664;23;20392;-85
2023/02/23 12:42:29;;;;;;;89.10;26.63;;;;;;;;;;6082795;23;21149;-82
2023/02/23 12:45:05;;;;;;;85.50;26.95;;;;;;;;;;6106176;23;20846;-84
2023/02/23 12:47:35;;;;;;;89.60;27.98;;;;;;;;;;6104370;23;21163;-85
2023/02/23 12:50:10;;;;;;;86.22;26.50;;;;;;;;;;6103329;23;20389;-84
2023/02/23 12:52:48;;;;;;;85.72;26.08;;;;;;;;;;6119213;23;20385;-83
2023/02/23 12:55:19;;;;;;;91.38;26.33;;;;;;;;;;6104909;23;21280;-84
2023/02/23 12:57:53;;;;;;;93.78;26.90;;;;;;;;;;6081951;23;20392;-82
2023/02/23 13:00:38;;;;;;;81.43;25.85;;;;;;;;;;6102565;23;20393;-85
2023/02/23 13:03:20;;;;;;;87.03;26.33;;;;;;;;;;6122563;23;20978;-86
2023/02/23 13:05:56;;;;;;;85.80;26.38;;;;;;;;;;6081983;23;21156;-84
2023/02/23 13:08:39;;;;;;;84.68;26.48;;;;;;;;;;6082317;23;20399;-83
2023/02/23 13:11:10;;;;;;;80.73;25.93;;;;;;;;;;6120113;23;20444;-83
2023/02/23 13:13:45;;;;;;;79.78;24.83;;;;;;;;;;6119695;23;20389;-83
2023/02/23 13:16:16;;;;;;;71.43;24.13;;;;;;;;;;6104088;23;20379;-81
2023/02/23 13:18:46;;;;;;;80.20;25.37;;;;;;;;;;6114704;23;20940;-80
2023/02/23 13:21:23;;;;;;;67.07;23.63;;;;;;;;;;6118490;23;20899;-81
2023/02/23 13:23:57;;;;;;;73.63;25.30;;;;;;;;;;6106678;23;21153;-84
2023/02/23 13:26:29;;;;;;;76.82;24.27;;;;;;;;;;6084374;23;20388;-83
2023/02/23 13:29:00;;;;;;;72.78;25.17;;;;;;;;;;6087053;23;20388;-82
2023/02/23 13:31:30;;;;;;;66.25;23.08;;;;;;;;;;6109750;23;20814;-83
2023/02/23 13:34:04;;;;;;;74.65;23.75;;;;;;;;;;6061414;23;20416;-83
2023/02/23 13:36:34;;;;;;;76.45;24.10;;;;;;;;;;6078475;23;20391;-83
2023/02/23 13:39:22;;;;;;;68.07;23.23;;;;;;;;;;6110707;23;20946;-84
2023/02/23 13:42:02;;;;;;;76.30;23.70;;;;;;;;;;6110179;23;20387;-84
2023/02/23 13:44:37;;;;;;;71.40;23.35;;;;;;;;;;6141306;23;20382;-84
2023/02/23 13:47:15;;;;;;;73.32;24.00;;;;;;;;;;6113027;23;20386;-83
2023/02/23 13:49:51;;;;;;;69.30;22.58;;;;;;;;;;6149234;23;20371;-84
2023/02/23 13:52:32;;;;;;;74.47;23.77;;;;;;;;;;6133623;23;20386;-84
2023/02/23 13:55:29;;;;;;;73.18;23.55;;;;;;;;;;6149823;23;20386;-84
2023/02/23 13:58:04;;;;;;;73.40;23.30;;;;;;;;;;6141715;23;20378;-84
2023/02/23 14:00:37;;;;;;;72.63;23.25;;;;;;;;;;6134465;23;20391;-83
2023/02/23 14:03:21;;;;;;;75.25;24.05;;;;;;;;;;6134731;23;20402;-84
2023/02/23 14:05:51;;;;;;;79.30;24.70;;;;;;;;;;6135266;23;20393;-83
2023/02/23 14:08:21;;;;;;;70.22;22.35;;;;;;;;;;6132756;23;20390;-83
2023/02/23 14:10:54;;;;;;;77.28;23.55;;;;;;;;;;6136382;23;20397;-84
2023/02/23 14:13:27;;;;;;;71.88;23.33;;;;;;;;;;6145411;23;20367;-83
2023/02/23 14:16:12;;;;;;;72.57;23.63;;;;;;;;;;6135237;23;20383;-83
2023/02/23 14:18:54;;;;;;;73.27;23.63;;;;;;;;;;6136395;23;20413;-84
2023/02/23 14:21:28;;;;;;;73.07;22.55;;;;;;;;;;6137205;23;20391;-85
2023/02/23 14:24:04;;;;;;;83.15;23.67;;;;;;;;;;6131409;23;20774;-83
2023/02/23 14:26:43;;;;;;;73.90;22.67;;;;;;;;;;6156236;23;20390;-84
2023/02/23 14:29:25;;;;;;;72.43;22.23;;;;;;;;;;6135137;23;20410;-84
2023/02/23 14:31:54;;;;;;;70.57;23.10;;;;;;;;;;6151424;23;20397;-84
2023/02/23 14:34:44;;;;;;;67.43;20.75;;;;;;;;;;6076489;23;20862;-84
2023/02/23 14:37:16;;;;;;;73.20;21.73;;;;;;;;;;6102290;23;20447;-84
2023/02/23 14:39:44;;;;;;;66.07;22.27;;;;;;;;;;6107409;23;20384;-84
2023/02/23 14:42:20;;;;;;;66.60;20.67;;;;;;;;;;6110272;23;20373;-84
2023/02/23 14:44:53;;;;;;;62.90;20.33;;;;;;;;;;6108561;23;20887;-84
2023/02/23 14:47:22;;;;;;;63.28;21.38;;;;;;;;;;6129914;23;20392;-83
2023/02/23 14:49:57;;;;;;;66.25;20.63;;;;;;;;;;6103675;23;21044;-85
2023/02/23 14:52:25;;;;;;;61.77;20.50;;;;;;;;;;6107766;23;20467;-83
2023/02/23 14:55:04;;;;;;;63.33;20.80;;;;;;;;;;6131207;23;20407;-84
2023/02/23 14:57:39;;;;;;;59.57;19.57;;;;;;;;;;6118201;23;21093;-83
2023/02/23 15:00:21;;;;;;;61.85;20.20;;;;;;;;;;6121051;23;20392;-83
2023/02/23 15:02:56;;;;;;;59.30;20.02;;;;;;;;;;6108642;23;20392;-84
2023/02/23 15:05:30;;;;;;;60.72;20.40;;;;;;;;;;6113555;23;20660;-84
2023/02/23 15:07:59;;;;;;;57.65;20.88;;;;;;;;;;6105438;23;20776;-83
2023/02/23 15:10:33;;;;;;;56.63;19.80;;;;;;;;;;6108109;23;20701;-84
2023/02/23 15:13:07;;;;;;;56.15;19.05;;;;;;;;;;6105369;23;21395;-83
2023/02/23 15:15:38;;;;;;;53.45;19.25;;;;;;;;;;6106329;23;20392;-83
2023/02/23 15:18:06;;;;;;;55.70;19.83;;;;;;;;;;6110285;23;20375;-84
2023/02/23 15:20:42;;;;;;;57.30;19.38;;;;;;;;;;6102687;23;20388;-83
2023/02/23 15:23:17;;;;;;;58.20;18.60;;;;;;;;;;6115835;23;20384;-85
2023/02/23 15:25:51;;;;;;;57.53;19.17;;;;;;;;;;6121319;23;20380;-84
2023/02/23 15:28:25;;;;;;;52.55;18.40;;;;;;;;;;6111123;23;20373;-83
2023/02/23 15:30:59;;;;;;;53.67;18.08;;;;;;;;;;6103537;23;20392;-84
2023/02/23 15:33:29;;;;;;;52.13;18.10;;;;;;;;;;6062831;23;20396;-84
2023/02/23 15:36:01;;;;;;;55.53;18.80;;;;;;;;;;6103947;23;20731;-84
2023/02/23 15:38:30;;;;;;;52.97;17.15;;;;;;;;;;6128489;23;20384;-83
2023/02/23 15:40:59;;;;;;;55.35;17.58;;;;;;;;;;6107413;23;20373;-83
2023/02/23 15:43:29;;;;;;;56.88;17.83;;;;;;;;;;6105409;23;20384;-83
2023/02/23 15:45:59;;;;;;;56.70;17.85;;;;;;;;;;6127386;23;20380;-83
2023/02/23 15:48:40;;;;;;;52.88;17.67;;;;;;;;;;6108003;23;20388;-84
2023/02/23 15:51:22;;;;;;;54.17;17.60;;;;;;;;;;6130699;23;20403;-83
2023/02/23 15:53:55;;;;;;;52.10;17.50;;;;;;;;;;6102223;23;20389;-84
2023/02/23 15:56:28;;;;;;;52.17;16.60;;;;;;;;;;6112051;23;20396;-84
2023/02/23 15:59:01;;;;;;;55.80;17.53;;;;;;;;;;6093826;23;20387;-84
2023/02/23 16:01:30;;;;;;;48.70;16.73;;;;;;;;;;6131353;23;20385;-84
2023/02/23 16:04:06;;;;;;;47.33;16.95;;;;;;;;;;6125447;23;20400;-84
2023/02/23 16:06:40;;;;;;;50.60;16.33;;;;;;;;;;6117663;23;20441;-83
2023/02/23 16:09:18;;;;;;;52.25;16.40;;;;;;;;;;6130549;23;20395;-84
2023/02/23 16:11:52;;;;;;;47.72;15.85;;;;;;;;;;6117070;23;20389;-83
2023/02/23 16:14:28;;;;;;;47.77;15.40;;;;;;;;;;6132387;23;20395;-84
2023/02/23 16:17:02;;;;;;;50.40;15.43;;;;;;;;;;6116901;23;20388;-83